Time;durP1;ratioP1;P1;durP2;ratioP2;P2;SDS_P1;SDS_P2;PMS_P1;PMS_P2;Temp;Humidity;BMP_temperature;BMP_pressure;BME280_temperature;BME280_humidity;BME280_pressure;Samples;Min_cycle;Max_cycle;Signal;HPM_P1;HPM_P2
2024/03/09 00:00:42;;;;;;;48.67;31.50;;;12.90;99.00;;;;;;5050505;28;20036;-71
2024/03/09 00:03:46;;;;;;;48.05;27.42;;;12.80;98.70;;;;;;5050478;28;20052;-70
2024/03/09 00:06:50;;;;;;;36.85;24.52;;;12.90;98.90;;;;;;5050416;28;20052;-71
2024/03/09 00:09:54;;;;;;;42.08;24.73;;;12.00;97.20;;;;;;5049620;28;20044;-70
2024/03/09 00:12:59;;;;;;;36.85;22.98;;;13.00;97.30;;;;;;5050609;28;20068;-70
2024/03/09 00:16:03;;;;;;;35.67;21.27;;;12.90;96.60;;;;;;5050656;28;20036;-70
2024/03/09 00:19:07;;;;;;;35.55;23.00;;;12.90;96.20;;;;;;5050653;28;20044;-70
2024/03/09 00:22:11;;;;;;;33.33;21.85;;;12.90;95.60;;;;;;5050498;28;20052;-70
2024/03/09 00:25:17;;;;;;;36.85;22.63;;;12.80;95.50;;;;;;5054248;28;20032;-70
2024/03/09 00:28:21;;;;;;;33.25;19.85;;;12.70;95.70;;;;;;5054084;28;20051;-70
2024/03/09 00:31:25;;;;;;;33.25;17.60;;;12.80;95.40;;;;;;5054280;28;20040;-70
2024/03/09 00:34:29;;;;;;;25.20;17.17;;;12.80;94.70;;;;;;5053964;28;20035;-70
2024/03/09 00:37:33;;;;;;;23.85;16.35;;;13.20;94.50;;;;;;5053296;28;20056;-70
2024/03/09 00:40:38;;;;;;;25.65;16.98;;;;;;;;;;5054188;28;20063;-70
2024/03/09 00:43:43;;;;;;;23.75;15.60;;;;;;;;;;5054452;28;20048;-70
2024/03/09 00:46:49;;;;;;;28.20;15.93;;;;;;;;;;5041289;28;20052;-70
2024/03/09 00:49:54;;;;;;;21.50;13.23;;;;;;;;;;5053819;28;20036;-71
2024/03/09 00:52:58;;;;;;;18.33;11.60;;;;;;;;;;5053926;28;20036;-70
2024/03/09 00:56:04;;;;;;;23.15;13.38;;;;;;;;;;5053631;28;20226;-70
2024/03/09 00:59:13;;;;;;;15.70;10.23;;;13.30;94.30;;;;;;5052496;28;20048;-70
2024/03/09 01:02:18;;;;;;;12.50;5.03;;;;;;;;;;5053580;28;20060;-70
2024/03/09 01:05:22;;;;;;;10.98;3.65;;;;;;;;;;5053799;28;20056;-70
2024/03/09 01:08:27;;;;;;;11.32;4.20;;;;;;;;;;5053262;28;20049;-70
2024/03/09 01:11:31;;;;;;;11.98;5.45;;;;;;;;;;5053572;28;20036;-70
2024/03/09 01:14:36;;;;;;;19.20;10.98;;;;;;;;;;5053085;28;20048;-71
2024/03/09 01:17:40;;;;;;;30.10;16.40;;;;;;;;;;5053485;28;20040;-70
2024/03/09 01:20:44;;;;;;;31.95;19.58;;;;;;;;;;5053694;28;20051;-70
2024/03/09 01:23:49;;;;;;;40.13;19.35;;;;;;;;;;5052723;28;20555;-70
2024/03/09 01:26:53;;;;;;;24.98;14.65;;;;;;;;;;5053079;28;20055;-70
2024/03/09 01:30:00;;;;;;;20.05;11.85;;;;;;;;;;5052451;28;20052;-70
2024/03/09 01:33:04;;;;;;;17.75;9.57;;;;;;;;;;5053413;28;20052;-70
2024/03/09 01:36:09;;;;;;;26.10;11.90;;;;;;;;;;5052157;28;20048;-70
2024/03/09 01:39:16;;;;;;;25.77;13.30;;;13.50;94.80;;;;;;5053035;28;20052;-70
2024/03/09 01:42:21;;;;;;;20.98;13.38;;;;;;;;;;5053050;28;20060;-71
2024/03/09 01:45:25;;;;;;;28.10;13.82;;;;;;;;;;5052708;28;20040;-70
2024/03/09 01:48:30;;;;;;;24.75;14.45;;;;;;;;;;5052842;28;20052;-70
2024/03/09 01:51:34;;;;;;;24.35;15.40;;;;;;;;;;5052752;28;20044;-70
2024/03/09 01:54:41;;;;;;;24.65;16.20;;;13.50;94.50;;;;;;5052761;28;20052;-70
2024/03/09 01:57:46;;;;;;;29.13;17.52;;;;;;;;;;5051670;28;20051;-71
2024/03/09 02:00:56;;;;;;;27.75;15.70;;;13.40;94.60;;;;;;5052675;28;20051;-70
2024/03/09 02:04:01;;;;;;;28.35;16.73;;;;;;;;;;5052316;28;20056;-71
2024/03/09 02:07:06;;;;;;;30.40;16.15;;;;;;;;;;5051440;28;20079;-70
2024/03/09 02:10:11;;;;;;;33.22;15.32;;;;;;;;;;5052532;28;20040;-70
2024/03/09 02:13:17;;;;;;;31.95;14.20;;;;;;;;;;5052531;28;20527;-71
2024/03/09 02:16:21;;;;;;;29.48;14.02;;;;;;;;;;5052368;28;20044;-70
2024/03/09 02:19:26;;;;;;;23.23;14.07;;;;;;;;;;5051883;28;20048;-70
2024/03/09 02:22:31;;;;;;;27.25;14.65;;;;;;;;;;5052192;28;20048;-70
2024/03/09 02:25:39;;;;;;;27.17;13.93;;;13.30;96.00;;;;;;5052461;28;20048;-70
2024/03/09 02:28:53;;;;;;;26.25;14.13;;;13.30;95.90;;;;;;5050945;28;20040;-70
2024/03/09 02:31:57;;;;;;;29.63;13.15;;;;;;;;;;5051987;28;20044;-70
2024/03/09 02:35:02;;;;;;;21.83;12.90;;;;;;;;;;5052004;28;20048;-70
2024/03/09 02:38:07;;;;;;;27.65;13.43;;;;;;;;;;5051099;28;20040;-70
2024/03/09 02:41:11;;;;;;;24.38;13.00;;;;;;;;;;5051962;28;20064;-70
2024/03/09 02:44:17;;;;;;;24.33;13.82;;;;;;;;;;5052171;28;20571;-70
2024/03/09 02:47:21;;;;;;;28.85;14.65;;;;;;;;;;5050235;28;20416;-70
2024/03/09 02:50:29;;;;;;;31.58;15.82;;;;;;;;;;5051717;28;20539;-70
2024/03/09 02:53:35;;;;;;;26.40;14.65;;;;;;;;;;5039071;28;20048;-70
2024/03/09 02:56:40;;;;;;;32.70;16.55;;;;;;;;;;5051518;28;20048;-70
2024/03/09 02:59:44;;;;;;;27.35;16.13;;;;;;;;;;5051255;28;20044;-70
2024/03/09 03:06:20;;;;;;;26.90;16.45;;;13.20;96.80;;;;;;5050987;28;20040;-70
2024/03/09 03:09:25;;;;;;;31.77;18.23;;;;;;;;;;5051136;28;20048;-70
2024/03/09 03:12:29;;;;;;;32.95;17.60;;;;;;;;;;5050495;28;20040;-70
2024/03/09 03:15:34;;;;;;;30.88;17.08;;;;;;;;;;5051174;28;20051;-70
2024/03/09 03:18:38;;;;;;;31.92;16.98;;;;;;;;;;5050431;28;20052;-70
2024/03/09 03:21:43;;;;;;;29.95;17.20;;;;;;;;;;5051750;28;20048;-70
2024/03/09 03:24:48;;;;;;;27.80;17.40;;;;;;;;;;5050310;28;20043;-70
2024/03/09 03:27:52;;;;;;;28.25;17.60;;;;;;;;;;5050823;28;20080;-70
2024/03/09 03:30:56;;;;;;;29.75;16.90;;;;;;;;;;5050782;28;20036;-71
2024/03/09 03:34:01;;;;;;;31.67;17.45;;;;;;;;;;5050968;28;20052;-71
2024/03/09 03:37:07;;;;;;;20.95;16.63;;;;;;;;;;5050036;28;20048;-71
2024/03/09 03:40:14;;;;;;;30.17;17.45;;;;;;;;;;5051035;28;20112;-71
2024/03/09 03:43:18;;;;;;;31.23;17.30;;;;;;;;;;5050653;28;20040;-71
2024/03/09 03:46:22;;;;;;;27.17;18.30;;;;;;;;;;5050558;28;20052;-72
2024/03/09 03:49:27;;;;;;;26.48;17.00;;;;;;;;;;5050569;28;20052;-71
2024/03/09 03:52:31;;;;;;;31.85;18.42;;;;;;;;;;5049982;28;20048;-71
2024/03/09 03:55:37;;;;;;;22.38;14.38;;;;;;;;;;5050439;28;20044;-71
2024/03/09 03:58:41;;;;;;;16.63;9.05;;;12.90;97.70;;;;;;5051813;28;20040;-71
2024/03/09 04:01:46;;;;;;;19.63;9.43;;;;;;;;;;5054359;28;20143;-71
2024/03/09 04:04:50;;;;;;;21.95;11.25;;;;;;;;;;5054716;28;20039;-71
2024/03/09 04:07:56;;;;;;;26.60;13.77;;;13.10;96.90;;;;;;5054380;28;20052;-71
2024/03/09 04:11:00;;;;;;;21.90;12.50;;;;;;;;;;5053967;28;20068;-71
2024/03/09 04:14:04;;;;;;;24.70;12.90;;;;;;;;;;5053868;28;20047;-70
2024/03/09 04:17:11;;;;;;;32.22;14.50;;;12.90;97.70;;;;;;5054647;28;20032;-70
2024/03/09 04:20:15;;;;;;;20.23;12.48;;;11.50;97.60;;;;;;5054599;28;20060;-71
2024/03/09 04:23:21;;;;;;;26.75;13.20;;;;;;;;;;5053773;28;20516;-70
2024/03/09 04:26:26;;;;;;;38.22;13.95;;;;;;;;;;5054330;28;20048;-70
2024/03/09 04:29:30;;;;;;;29.98;12.80;;;;;;;;;;5053525;28;20055;-71
2024/03/09 04:32:34;;;;;;;20.88;11.30;;;;;;;;;;5054417;28;20063;-71
2024/03/09 04:35:41;;;;;;;15.57;9.45;;;13.00;97.70;;;;;;5054309;28;20040;-70
2024/03/09 04:38:47;;;;;;;17.35;8.52;;;13.10;98.00;;;;;;5054109;28;20400;-70
2024/03/09 04:41:54;;;;;;;17.73;9.13;;;;;;;;;;5053779;28;20040;-70
2024/03/09 04:44:58;;;;;;;14.63;8.88;;;;;;;;;;5054220;28;20048;-70
2024/03/09 04:48:04;;;;;;;15.18;8.90;;;;;;;;;;5053689;28;20048;-70
2024/03/09 04:51:08;;;;;;;17.15;8.57;;;;;;;;;;5053923;28;20044;-70
2024/03/09 04:54:12;;;;;;;18.67;8.45;;;;;;;;;;5053976;28;20052;-71
2024/03/09 04:57:24;;;;;;;22.35;9.63;;;;;;;;;;5053890;28;20393;-70
2024/03/09 05:00:28;;;;;;;20.05;11.48;;;;;;;;;;5053043;28;20397;-70
2024/03/09 05:03:34;;;;;;;23.80;12.15;;;;;;;;;;5052897;28;20055;-70
2024/03/09 05:06:41;;;;;;;20.00;11.48;;;;;;;;;;5053520;28;20047;-70
2024/03/09 05:09:45;;;;;;;25.75;11.80;;;;;;;;;;5052159;28;20051;-70
2024/03/09 05:12:53;;;;;;;24.35;12.60;;;13.40;97.50;;;;;;5041268;28;20043;-70
2024/03/09 05:15:58;;;;;;;22.15;11.55;;;;;;;;;;5053356;28;20071;-70
2024/03/09 05:19:05;;;;;;;20.50;10.68;;;;;;;;;;5052262;28;20528;-70
2024/03/09 05:22:09;;;;;;;23.35;10.57;;;;;;;;;;5053169;28;20036;-70
2024/03/09 05:25:14;;;;;;;24.30;10.90;;;13.20;97.50;;;;;;5053371;28;20048;-71
2024/03/09 05:28:20;;;;;;;22.40;10.45;;;;;;;;;;5052866;28;20056;-70
2024/03/09 05:31:26;;;;;;;21.00;10.32;;;13.30;97.50;;;;;;5053363;28;20040;-70
2024/03/09 05:34:34;;;;;;;23.30;10.32;;;;;;;;;;5053268;28;20067;-70
2024/03/09 05:37:39;;;;;;;18.67;9.27;;;;;;;;;;5053111;28;20040;-71
2024/03/09 05:40:44;;;;;;;18.40;7.55;;;;;;;;;;5052989;28;20044;-70
2024/03/09 05:43:48;;;;;;;18.50;7.60;;;13.10;98.10;;;;;;5053180;28;20500;-70
2024/03/09 05:46:52;;;;;;;15.15;7.05;;;;;;;;;;5052394;28;20052;-72
2024/03/09 05:49:57;;;;;;;19.05;7.65;;;;;;;;;;5053156;28;20068;-71
2024/03/09 05:53:02;;;;;;;22.05;7.82;;;13.50;98.30;;;;;;5052893;28;20040;-71
2024/03/09 05:56:06;;;;;;;22.45;8.70;;;;;;;;;;5040642;28;20048;-70
2024/03/09 05:59:11;;;;;;;18.70;7.47;;;;;;;;;;5053281;28;20059;-71
2024/03/09 06:02:15;;;;;;;22.38;7.68;;;;;;;;;;5052779;28;20540;-70
2024/03/09 06:05:21;;;;;;;14.40;7.07;;;;;;;;;;5052919;28;20060;-71
2024/03/09 06:08:26;;;;;;;13.90;5.93;;;;;;;;;;5052488;28;20056;-72
2024/03/09 06:11:31;;;;;;;17.40;5.90;;;;;;;;;;5052929;28;20055;-72
2024/03/09 06:14:35;;;;;;;13.88;4.95;;;;;;;;;;5052488;28;20399;-72
2024/03/09 06:17:39;;;;;;;9.02;4.70;;;;;;;;;;5052714;28;20050;-71
2024/03/09 06:20:44;;;;;;;14.65;5.63;;;;;;;;;;5051922;28;20041;-71
2024/03/09 06:23:48;;;;;;;15.52;5.20;;;;;;;;;;5052530;28;20055;-72
2024/03/09 06:26:52;;;;;;;19.67;5.38;;;;;;;;;;5051374;28;20052;-69
2024/03/09 06:29:58;;;;;;;15.65;7.65;;;;;;;;;;5052448;28;20043;-72
2024/03/09 06:33:02;;;;;;;13.20;6.65;;;;;;;;;;5052514;28;20044;-71
2024/03/09 06:36:08;;;;;;;19.42;5.47;;;;;;;;;;5051320;28;20060;-71
2024/03/09 06:39:12;;;;;;;14.20;6.53;;;;;;;;;;5050955;28;20048;-70
2024/03/09 06:42:21;;;;;;;23.05;11.85;;;;;;;;;;5052125;28;20040;-70
2024/03/09 06:45:26;;;;;;;19.40;8.93;;;14.00;99.90;;;;;;5051824;28;20444;-70
2024/03/09 06:48:30;;;;;;;18.30;6.50;;;;;;;;;;5050604;28;20056;-69
2024/03/09 06:51:35;;;;;;;14.07;5.55;;;;;;;;;;5051791;28;20496;-70
2024/03/09 06:54:39;;;;;;;13.52;6.10;;;;;;;;;;5051775;28;20051;-70
2024/03/09 06:57:46;;;;;;;14.18;6.28;;;;;;;;;;5051615;28;20102;-71
2024/03/09 07:00:50;;;;;;;18.33;6.40;;;;;;;;;;5051498;28;20401;-70
2024/03/09 07:03:55;;;;;;;18.13;5.70;;;;;;;;;;5051356;28;20076;-70
2024/03/09 07:06:59;;;;;;;14.00;5.90;;;;;;;;;;5051147;28;20047;-70
2024/03/09 07:10:07;;;;;;;13.68;5.53;;;;;;;;;;5051096;28;20056;-69
2024/03/09 07:13:11;;;;;;;19.60;9.88;;;;;;;;;;5049394;28;20048;-72
2024/03/09 07:16:16;;;;;;;15.20;6.80;;;;;;;;;;5051347;28;20374;-69
2024/03/09 07:19:20;;;;;;;24.70;9.73;;;;;;;;;;5049828;28;20072;-72
2024/03/09 07:22:25;;;;;;;18.30;9.77;;;;;;;;;;5051229;28;20389;-70
2024/03/09 07:25:30;;;;;;;17.33;9.60;;;;;;;;;;5050274;28;20048;-68
2024/03/09 07:28:35;;;;;;;28.83;13.82;;;;;;;;;;5049875;28;20052;-71
2024/03/09 07:31:39;;;;;;;22.70;10.27;;;;;;;;;;5050969;28;20044;-71
2024/03/09 07:34:43;;;;;;;20.23;9.10;;;;;;;;;;5050971;28;20043;-70
2024/03/09 07:37:58;;;;;;;13.90;6.10;;;13.70;99.90;;;;;;5050036;28;20504;-71
2024/03/09 07:41:02;;;;;;;14.73;7.32;;;;;;;;;;5050997;28;20056;-71
2024/03/09 07:44:07;;;;;;;15.50;7.18;;;;;;;;;;5050774;28;20032;-71
2024/03/09 07:47:12;;;;;;;17.25;7.45;;;;;;;;;;5050068;28;20052;-72
2024/03/09 07:50:18;;;;;;;29.75;7.10;;;13.70;99.90;;;;;;5050259;28;20052;-71
2024/03/09 07:53:23;;;;;;;16.30;7.10;;;;;;;;;;5050936;28;20052;-70
2024/03/09 07:56:28;;;;;;;20.08;10.40;;;;;;;;;;5050827;28;20048;-68
2024/03/09 07:59:32;;;;;;;22.23;11.43;;;;;;;;;;5050407;28;20044;-69
2024/03/09 08:02:37;;;;;;;23.73;12.00;;;;;;;;;;5050167;28;20064;-68
2024/03/09 08:05:42;;;;;;;25.25;13.07;;;;;;;;;;5050617;28;20048;-70
2024/03/09 08:08:48;;;;;;;27.08;14.52;;;;;;;;;;5049861;28;20074;-68
2024/03/09 08:11:52;;;;;;;24.75;12.32;;;;;;;;;;5050341;28;20044;-69
2024/03/09 08:14:57;;;;;;;28.63;13.25;;;;;;;;;;5050491;28;20047;-70
2024/03/09 08:18:02;;;;;;;26.45;13.20;;;;;;;;;;5049970;28;20488;-68
2024/03/09 08:21:07;;;;;;;28.88;14.88;;;;;;;;;;5050121;28;20056;-69
2024/03/09 08:24:12;;;;;;;24.85;15.38;;;;;;;;;;5050498;28;20040;-68
2024/03/09 08:27:17;;;;;;;26.48;16.38;;;;;;;;;;5050266;28;20052;-68
2024/03/09 08:30:22;;;;;;;29.48;17.35;;;;;;;;;;5050255;28;20052;-68
2024/03/09 08:33:26;;;;;;;32.45;19.60;;;;;;;;;;5050207;28;20044;-67
2024/03/09 08:36:31;;;;;;;33.03;19.50;;;;;;;;;;5050196;28;20500;-69
2024/03/09 08:39:35;;;;;;;26.73;17.70;;;13.30;99.90;;;;;;5049919;28;20064;-68
2024/03/09 08:42:40;;;;;;;29.73;18.20;;;;;;;;;;5049565;28;20503;-67
2024/03/09 08:45:45;;;;;;;30.38;20.42;;;;;;;;;;5052415;28;20048;-68
2024/03/09 08:48:49;;;;;;;36.28;22.92;;;;;;;;;;5053272;28;20072;-68
2024/03/09 08:51:54;;;;;;;29.35;20.20;;;;;;;;;;5053418;28;20665;-71
2024/03/09 08:54:59;;;;;;;30.60;21.23;;;13.30;99.90;;;;;;5052254;28;20515;-67
2024/03/09 08:58:05;;;;;;;36.85;25.70;;;;;;;;;;5053352;28;20039;-68
2024/03/09 09:01:10;;;;;;;32.75;22.65;;;;;;;;;;5053688;28;20044;-68
2024/03/09 09:04:14;;;;;;;30.83;21.17;;;;;;;;;;5053511;28;20060;-68
2024/03/09 09:07:19;;;;;;;28.75;19.73;;;;;;;;;;5053121;28;20056;-70
2024/03/09 09:10:25;;;;;;;25.83;18.55;;;;;;;;;;5053248;28;20619;-69
2024/03/09 09:13:29;;;;;;;27.52;18.63;;;;;;;;;;5053284;28;20044;-68
2024/03/09 09:16:34;;;;;;;23.60;17.17;;;13.40;99.90;;;;;;5053329;28;20040;-68
2024/03/09 09:19:39;;;;;;;27.55;17.20;;;13.50;99.90;;;;;;5053132;28;20047;-69
2024/03/09 09:22:49;;;;;;;28.35;17.13;;;13.50;99.90;;;;;;5052774;28;20048;-69
2024/03/09 09:25:53;;;;;;;26.58;17.90;;;;;;;;;;5051746;28;20052;-70
2024/03/09 09:28:58;;;;;;;31.90;20.08;;;;;;;;;;5051938;28;20530;-69
2024/03/09 09:32:03;;;;;;;24.10;18.80;;;;;;;;;;5052827;28;20048;-71
2024/03/09 09:35:08;;;;;;;33.25;20.35;;;;;;;;;;5052153;28;20170;-69
2024/03/09 09:38:17;;;;;;;28.50;20.95;;;;;;;;;;5052710;28;20048;-70
2024/03/09 09:41:27;;;;;;;37.40;20.92;;;13.60;99.90;;;;;;5040300;28;20040;-70
2024/03/09 09:44:31;;;;;;;26.65;19.15;;;;;;;;;;5052408;28;20044;-70
2024/03/09 09:47:36;;;;;;;30.70;18.65;;;;;;;;;;5052539;28;20048;-67
2024/03/09 09:50:41;;;;;;;24.90;17.52;;;13.40;99.90;;;;;;5052647;28;20396;-68
2024/03/09 09:53:47;;;;;;;31.95;20.10;;;;;;;;;;5052545;28;20068;-68
2024/03/09 09:56:53;;;;;;;37.60;21.77;;;;;;;;;;5051046;28;20503;-69
2024/03/09 09:59:57;;;;;;;29.85;19.90;;;;;;;;;;5052332;28;20040;-68
2024/03/09 10:03:04;;;;;;;32.30;20.83;;;;;;;;;;5052119;28;20060;-67
2024/03/09 10:06:20;;;;;;;27.00;17.48;;;13.40;99.90;;;;;;5052078;28;20111;-69
2024/03/09 10:09:27;;;;;;;24.63;15.48;;;13.50;99.90;;;;;;5051902;28;20044;-69
2024/03/09 10:12:31;;;;;;;23.55;11.65;;;;;;;;;;5052106;28;20043;-71
2024/03/09 10:15:38;;;;;;;26.40;11.43;;;13.70;99.90;;;;;;5052291;28;20445;-70
2024/03/09 10:18:43;;;;;;;20.85;11.00;;;13.50;99.90;;;;;;5052069;28;20056;-69
2024/03/09 10:21:54;;;;;;;17.58;8.88;;;13.60;99.90;;;;;;5052018;28;20040;-70
2024/03/09 10:24:58;;;;;;;18.00;8.88;;;;;;;;;;5052115;28;20048;-70
2024/03/09 10:28:07;;;;;;;19.30;7.05;;;13.70;99.90;;;;;;5052054;28;20060;-69
2024/03/09 10:31:12;;;;;;;12.60;6.13;;;;;;;;;;5052255;28;20051;-69
2024/03/09 10:34:17;;;;;;;12.48;5.93;;;;;;;;;;5052538;28;20048;-68
2024/03/09 10:37:23;;;;;;;17.15;5.97;;;;;;;;;;5050759;28;20040;-70
2024/03/09 10:40:27;;;;;;;15.13;6.70;;;;;;;;;;5051982;28;20055;-67
2024/03/09 10:43:34;;;;;;;17.75;6.57;;;13.50;99.90;;;;;;5051210;28;20077;-70
2024/03/09 10:46:42;;;;;;;13.18;5.80;;;13.50;99.90;;;;;;5051967;28;20040;-69
2024/03/09 10:49:49;;;;;;;11.57;5.35;;;13.40;99.90;;;;;;5050883;28;20489;-69
2024/03/09 10:53:08;;;;;;;22.08;9.63;;;13.40;99.90;;;;;;5051742;28;20035;-68
2024/03/09 10:56:23;;;;;;;15.18;7.05;;;13.30;99.90;;;;;;5051394;28;20048;-69
2024/03/09 10:59:28;;;;;;;23.30;9.60;;;;;;;;;;5050631;28;20075;-68
2024/03/09 11:02:35;;;;;;;19.15;9.65;;;13.50;99.90;;;;;;5050301;28;20064;-70
2024/03/09 11:05:39;;;;;;;22.27;11.48;;;;;;;;;;5051648;28;20040;-69
2024/03/09 11:08:48;;;;;;;25.10;11.55;;;13.30;99.90;;;;;;5050508;28;20591;-68
2024/03/09 11:11:56;;;;;;;21.13;10.63;;;;;;;;;;5051045;28;20056;-70
2024/03/09 11:15:00;;;;;;;17.23;9.00;;;13.20;99.90;;;;;;5050935;28;20044;-69
2024/03/09 11:18:08;;;;;;;12.35;8.25;;;13.50;99.90;;;;;;5051002;28;20393;-69
2024/03/09 11:21:34;;;;;;;17.30;8.63;;;13.50;99.90;;;;;;5051213;28;20048;-69
2024/03/09 11:24:40;;;;;;;19.38;10.00;;;13.40;99.90;;;;;;5050979;28;20052;-69
2024/03/09 11:27:44;;;;;;;19.98;10.75;;;;;;;;;;5050772;28;20048;-70
2024/03/09 11:31:10;;;;;;;20.75;11.07;;;13.50;99.90;;;;;;5051004;28;20052;-68
2024/03/09 11:34:22;;;;;;;22.17;10.63;;;13.60;99.90;;;;;;5050734;28;20067;-69
2024/03/09 11:37:44;;;;;;;22.63;11.68;;;13.30;99.90;;;;;;5049990;28;20032;-68
2024/03/09 11:40:49;;;;;;;24.33;14.02;;;;;;;;;;5050416;28;20047;-68
2024/03/09 11:43:53;;;;;;;21.92;12.90;;;;;;;;;;5050006;28;20052;-69
2024/03/09 11:46:58;;;;;;;20.13;11.73;;;;;;;;;;5050276;28;20052;-69
2024/03/09 11:50:02;;;;;;;26.55;13.63;;;;;;;;;;5049994;28;20064;-69
2024/03/09 11:53:12;;;;;;;20.67;12.15;;;13.70;99.90;;;;;;5050405;28;20052;-69
2024/03/09 11:56:17;;;;;;;20.08;12.55;;;;;;;;;;5050693;28;20401;-68
2024/03/09 11:59:21;;;;;;;17.27;12.07;;;;;;;;;;5050693;28;20069;-69
2024/03/09 12:02:25;;;;;;;48.15;29.45;;;;;;;;;;5050328;28;20056;-68
2024/03/09 12:05:29;;;;;;;28.75;18.80;;;;;;;;;;5050431;28;20051;-69
2024/03/09 12:08:34;;;;;;;18.50;12.38;;;13.50;99.90;;;;;;5049535;28;20093;-70
2024/03/09 12:11:40;;;;;;;16.23;11.77;;;13.50;99.90;;;;;;5050398;28;20045;-69
2024/03/09 12:14:44;;;;;;;19.77;12.82;;;;;;;;;;5050749;28;20405;-68
2024/03/09 12:17:49;;;;;;;25.15;14.40;;;;;;;;;;5050320;28;20048;-69
2024/03/09 12:20:52;;;;;;;22.83;15.07;;;;;;;;;;5053369;28;20040;-69
2024/03/09 12:24:00;;;;;;;17.58;12.82;;;;;;;;;;5054111;28;20052;-69
2024/03/09 12:27:05;;;;;;;24.15;15.13;;;13.70;99.90;;;;;;5053358;28;20500;-69
2024/03/09 12:30:15;;;;;;;19.83;15.20;;;;;;;;;;5054055;28;20052;-68
2024/03/09 12:33:21;;;;;;;25.20;15.68;;;;;;;;;;5054411;28;20048;-68
2024/03/09 12:36:25;;;;;;;34.58;19.67;;;;;;;;;;5054537;28;20143;-69
2024/03/09 12:39:30;;;;;;;27.20;19.52;;;;;;;;;;5053451;28;20047;-69
2024/03/09 12:42:34;;;;;;;31.38;20.38;;;;;;;;;;5054048;28;20048;-70
2024/03/09 12:45:41;;;;;;;26.05;19.20;;;;;;;;;;5054010;28;20044;-70
2024/03/09 12:48:45;;;;;;;30.45;18.27;;;;;;;;;;5052814;28;20060;-69
2024/03/09 12:51:50;;;;;;;24.75;16.77;;;13.90;99.90;;;;;;5053932;28;20393;-69
2024/03/09 12:54:55;;;;;;;27.10;16.55;;;;;;;;;;5053704;28;20055;-70
2024/03/09 12:58:00;;;;;;;23.98;14.73;;;;;;;;;;5053767;28;20044;-69
2024/03/09 13:01:05;;;;;;;23.02;13.45;;;;;;;;;;5053495;28;20048;-70
2024/03/09 13:04:10;;;;;;;19.38;11.82;;;;;;;;;;5053602;28;20064;-71
2024/03/09 13:07:15;;;;;;;16.23;11.85;;;;;;;;;;5053732;28;20075;-71
2024/03/09 13:10:24;;;;;;;17.48;11.82;;;13.90;99.90;;;;;;5053403;28;20051;-70
2024/03/09 13:13:29;;;;;;;15.68;8.88;;;;;;;;;;5052837;28;20044;-71
2024/03/09 13:16:33;;;;;;;16.20;9.18;;;;;;;;;;5053862;28;20040;-70
2024/03/09 13:19:40;;;;;;;15.73;6.93;;;;;;;;;;5053456;28;20048;-68
2024/03/09 13:22:47;;;;;;;11.13;5.18;;;14.10;99.90;;;;;;5053236;28;20043;-71
2024/03/09 13:25:52;;;;;;;10.13;4.90;;;;;;;;;;5052810;28;20052;-72
2024/03/09 13:29:00;;;;;;;8.35;4.40;;;;;;;;;;5053094;28;20056;-72
2024/03/09 13:32:15;;;;;;;13.48;6.32;;;;;;;;;;5052813;28;20037;-70
2024/03/09 13:35:20;;;;;;;9.07;4.82;;;14.30;99.90;;;;;;5053131;28;20048;-71
2024/03/09 13:38:26;;;;;;;10.65;5.68;;;;;;;;;;5052648;28;20044;-71
2024/03/09 13:41:30;;;;;;;11.43;5.30;;;;;;;;;;5052253;28;20405;-71
2024/03/09 13:44:35;;;;;;;9.23;4.68;;;;;;;;;;5052072;28;20515;-71
2024/03/09 13:47:40;;;;;;;11.88;3.60;;;;;;;;;;5052880;28;20041;-72
2024/03/09 13:50:44;;;;;;;9.63;3.95;;;;;;;;;;5052837;28;20052;-73
2024/03/09 13:53:49;;;;;;;6.30;3.50;;;;;;;;;;5051779;28;20033;-68
2024/03/09 13:56:54;;;;;;;4.95;2.97;;;;;;;;;;5052815;28;20069;-69
2024/03/09 13:59:58;;;;;;;6.95;3.55;;;;;;;;;;5052567;28;20041;-70
2024/03/09 14:03:03;;;;;;;8.25;4.47;;;;;;;;;;5052324;28;20044;-72
2024/03/09 14:06:07;;;;;;;6.15;4.05;;;;;;;;;;5052434;28;20028;-70
2024/03/09 14:09:12;;;;;;;12.00;5.22;;;;;;;;;;5052234;28;20053;-69
2024/03/09 14:12:20;;;;;;;12.45;5.45;;;14.80;99.90;;;;;;5052649;28;20051;-71
2024/03/09 14:15:25;;;;;;;12.40;6.93;;;;;;;;;;5052287;28;20059;-71
2024/03/09 14:18:32;;;;;;;8.55;4.63;;;;;;;;;;5052503;28;20111;-71
2024/03/09 14:21:36;;;;;;;10.85;5.35;;;;;;;;;;5052502;28;20049;-72
2024/03/09 14:24:41;;;;;;;9.25;4.57;;;14.80;99.90;;;;;;5052277;28;20389;-72
2024/03/09 14:27:47;;;;;;;7.68;3.90;;;;;;;;;;5051758;28;20047;-72
2024/03/09 14:30:52;;;;;;;4.95;3.03;;;;;;;;;;5052102;28;20036;-72
2024/03/09 14:33:58;;;;;;;7.07;3.00;;;;;;;;;;5051926;28;20041;-72
2024/03/09 14:37:02;;;;;;;7.80;2.80;;;;;;;;;;5051724;28;20041;-72
2024/03/09 14:40:11;;;;;;;4.20;2.78;;;15.00;99.90;;;;;;5050681;28;20049;-73
2024/03/09 14:43:16;;;;;;;6.72;2.67;;;;;;;;;;5049017;28;20040;-73
2024/03/09 14:46:20;;;;;;;5.38;2.60;;;;;;;;;;5048674;28;20041;-73
2024/03/09 14:49:25;;;;;;;5.65;2.80;;;;;;;;;;5047833;28;20752;-73
2024/03/09 14:52:31;;;;;;;5.07;1.90;;;;;;;;;;5048453;28;20534;-72
2024/03/09 14:55:35;;;;;;;7.65;2.63;;;;;;;;;;5050081;28;20041;-75
2024/03/09 14:58:44;;;;;;;3.92;1.60;;;;;;;;;;5049932;28;20033;-73
2024/03/09 15:01:50;;;;;;;6.45;3.35;;;;;;;;;;5051719;28;20041;-72
2024/03/09 15:04:54;;;;;;;8.15;4.93;;;;;;;;;;5052022;28;20485;-75
2024/03/09 15:07:58;;;;;;;24.75;14.13;;;;;;;;;;5052530;28;20037;-75
2024/03/09 15:11:10;;;;;;;13.18;7.65;;;15.30;99.90;;;;;;5051854;28;20060;-74
2024/03/09 15:14:14;;;;;;;6.57;3.28;;;;;;;;;;5051260;28;20516;-73
2024/03/09 15:17:19;;;;;;;5.43;2.88;;;;;;;;;;5051137;28;20041;-73
2024/03/09 15:20:26;;;;;;;7.30;3.85;;;;;;;;;;5051607;28;20045;-73
2024/03/09 15:23:31;;;;;;;18.55;7.10;;;;;;;;;;5050759;28;20366;-74
2024/03/09 15:26:40;;;;;;;9.10;5.13;;;;;;;;;;5051143;28;20044;-73
2024/03/09 15:29:44;;;;;;;9.90;5.53;;;;;;;;;;5050941;28;20037;-74
2024/03/09 15:32:54;;;;;;;9.10;5.30;;;15.20;99.90;;;;;;5050868;28;20037;-74
2024/03/09 15:35:59;;;;;;;6.90;4.20;;;;;;;;;;5051539;28;20044;-73
2024/03/09 15:39:11;;;;;;;10.27;4.57;;;;;;;;;;5051378;28;20037;-73
2024/03/09 15:42:16;;;;;;;15.85;11.45;;;;;;;;;;5050719;28;20048;-72
2024/03/09 15:45:20;;;;;;;10.40;4.60;;;;;;;;;;5050143;28;20100;-73
2024/03/09 15:48:24;;;;;;;10.40;4.22;;;;;;;;;;5051553;28;20052;-73
2024/03/09 15:51:31;;;;;;;9.27;4.75;;;;;;;;;;5051649;28;20036;-73
2024/03/09 15:54:35;;;;;;;8.18;4.40;;;;;;;;;;5053525;28;20045;-72
2024/03/09 15:57:39;;;;;;;10.32;4.85;;;;;;;;;;5055076;28;20495;-73
2024/03/09 16:00:44;;;;;;;8.52;4.60;;;;;;;;;;5056092;28;20059;-74
2024/03/09 16:03:48;;;;;;;18.38;7.32;;;;;;;;;;5056430;28;20059;-75
2024/03/09 16:06:52;;;;;;;14.48;6.40;;;;;;;;;;5056532;28;20626;-73
2024/03/09 16:09:57;;;;;;;12.90;6.15;;;;;;;;;;5055740;28;20064;-74
2024/03/09 16:13:02;;;;;;;11.90;5.57;;;;;;;;;;5057310;28;20040;-74
2024/03/09 16:16:06;;;;;;;14.73;6.10;;;;;;;;;;5055405;28;20047;-73
2024/03/09 16:19:10;;;;;;;18.17;8.77;;;;;;;;;;5054817;28;20048;-74
2024/03/09 16:22:15;;;;;;;22.63;9.10;;;;;;;;;;5056167;28;20084;-74
2024/03/09 16:25:20;;;;;;;16.15;9.75;;;;;;;;;;5055091;28;20504;-74
2024/03/09 16:28:31;;;;;;;15.77;8.68;;;;;;;;;;5055097;28;20044;-74
2024/03/09 16:31:36;;;;;;;21.52;8.68;;;;;;;;;;5054733;28;20055;-74
2024/03/09 16:34:41;;;;;;;16.48;7.75;;;14.50;99.90;;;;;;5054726;28;20202;-75
2024/03/09 16:37:46;;;;;;;16.92;6.68;;;;;;;;;;5054520;28;20052;-75
2024/03/09 16:40:55;;;;;;;10.90;5.00;;;14.90;99.90;;;;;;5053682;28;20044;-74
2024/03/09 16:43:59;;;;;;;13.50;5.35;;;;;;;;;;5054326;28;20044;-73
2024/03/09 16:47:04;;;;;;;9.68;4.75;;;;;;;;;;5056929;28;20040;-73
2024/03/09 16:50:10;;;;;;;13.68;5.05;;;;;;;;;;5055713;28;20041;-73
2024/03/09 16:53:16;;;;;;;19.27;5.40;;;;;;;;;;5056376;28;20044;-74
2024/03/09 16:56:20;;;;;;;13.02;6.72;;;;;;;;;;5054959;28;20098;-73
2024/03/09 16:59:27;;;;;;;12.05;6.88;;;;;;;;;;5053259;28;20052;-73
2024/03/09 17:02:32;;;;;;;18.42;7.72;;;;;;;;;;5053858;28;20052;-74
2024/03/09 17:05:37;;;;;;;19.15;8.90;;;;;;;;;;5053028;28;20043;-75
2024/03/09 17:08:43;;;;;;;27.05;11.50;;;;;;;;;;5053714;28;20067;-74
2024/03/09 17:11:52;;;;;;;23.65;9.90;;;;;;;;;;5053836;28;20048;-73
2024/03/09 17:14:56;;;;;;;56.53;27.60;;;;;;;;;;5053229;28;20059;-73
2024/03/09 17:18:00;;;;;;;43.22;22.00;;;;;;;;;;5052416;28;20052;-73
2024/03/09 17:21:05;;;;;;;41.75;21.15;;;;;;;;;;5052393;28;20044;-74
2024/03/09 17:24:09;;;;;;;34.13;17.85;;;;;;;;;;5053149;28;20040;-74
2024/03/09 17:27:13;;;;;;;26.55;11.93;;;;;;;;;;5053055;28;20393;-74
2024/03/09 17:30:18;;;;;;;22.25;11.98;;;;;;;;;;5053040;28;20135;-74
2024/03/09 17:33:23;;;;;;;26.88;17.35;;;;;;;;;;5053066;28;20052;-74
2024/03/09 17:36:27;;;;;;;25.17;14.65;;;;;;;;;;5052694;28;20048;-74